Giacomo Marini

Recruteur - Palermo
3 Déc 2028
Dimanche
Processus

Personnalité

Adaptabilité (14) Ambition (4) Controverse (14) Loyauté (10) Pression (16) Professionnalisme (15) Sportivité (4) Tempérament (1)

Profil

Style d'entraînement Démocratique
Diplôme National B
Détermination 5
Gestion des joueurs 9
Motivation 6
Discipline 7
Satisfaction professionnelle
100%
Fatigue
0%
Rôle Recruteur
Salaire 18.6K p/s
Contrat 14.03.2029

Performance

Comportement Bon
Efficacité de l'entraînement
50%
Développement des joueurs
35%
Prévention des blessures
25%
Mise en place tactique
60%

Événements récents

A participé à une réunion de recrutement maintenant
A recommandé une cible de transfert maintenant
A recommandé une cible de transfert 7j
A évalué un joueur 7j
A évalué un joueur 7j
A évalué un joueur 7j
A évalué un joueur 7j
A évalué un joueur 7j

Suivi en cours

130
Joueur Club Statut Capacité Confiance Observé Dernière observation Dernier vote
Riquelme Thompson-Jones Accrington Stanley Actif 117 / 120 40% 7 01.12.2028 -
Jan Bürger Northampton Town Actif 123 / 128 40% 5 01.12.2028 -
Azizbek To'lqinbekov Bunyodkor Actif 100 / 102 40% 8 01.12.2028 -
Trey Nyoni Rotherham United Actif 148 / 147 40% 13 28.11.2028 -
Kiani Inge Groningen Actif 113 / 125 40% 7 28.11.2028 -
Louis Page Leicester City Actif 142 / 145 40% 10 28.11.2028 -
Cheveyo Tsawa Club Brugge Actif 126 / 130 40% 3 25.11.2028 -
Rafael Mota Sporting CP Actif 125 / 122 40% 3 25.11.2028 -
Daniel Banjaqui Benfica Actif 131 / 135 40% 9 23.11.2028 -
Kwesi Sorotu Badori Berekum Chelsea Actif 104 / 109 40% 5 23.11.2028 -
Bernardo Lima Porto Actif 115 / 130 40% 1 23.11.2028 -
Federico Matarán Giana Erminio Actif 106 / 122 40% 8 22.11.2028 -
Salvador Blopá Wolverhampton Actif 132 / 128 40% 2 22.11.2028 -
Johan Solstad-Nøis Tromso Actif 92 / 104 40% 5 21.11.2028 -
Noah Markmann Esbjerg Actif 127 / 128 40% 2 21.11.2028 -
Andrija Bulatović Chamois Niortais Actif 134 / 135 40% 3 21.11.2028 -
Eman Košpo Zorya Actif 115 / 109 40% 2 19.11.2028 -
Davinchi Getafe Actif 133 / 132 40% 2 19.11.2028 -
Andrey Ivlev Nizhniy Novgorod Actif 128 / 118 40% 4 13.11.2028 -
Martim Cunha Porto Actif 116 / 118 40% 6 12.11.2028 -
Tyson Pearce St. Louis CITY SC Actif 84 / 93 40% 7 12.11.2028 -
Máximo Munarriz San Telmo Actif 98 / 99 40% 8 10.11.2028 -
Snyder Brunell Seattle Sounders Actif 93 / 94 40% 6 07.11.2028 -
Celías Ingenthron Platense Actif 116 / 126 40% 6 06.11.2028 -
Mateo Caballero Defensor Sporting Actif 112 / 102 40% 4 06.11.2028 -
Felipe Pujol Vélez Actif 122 / 123 40% 2 06.11.2028 -
Filip Reshane Stabaek Actif 92 / 101 40% 2 04.11.2028 -
Máximo Magnoli Ferro Carril Oeste Actif 102 / 106 40% 4 03.11.2028 -
Matteo Palma Udinese Actif 136 / 144 40% 13 02.11.2028 -
Tyler Fletcher Rotherham United Actif 120 / 128 40% 4 02.11.2028 -
Matías Satas Grimsby Town Actif 103 / 112 40% 2 02.11.2028 -
Diego León Rotherham United Actif 121 / 130 40% 6 29.10.2028 -
Miguel Figueiredo Benfica Actif 128 / 133 40% 4 27.10.2028 -
Pietro La Torre Queens Park Rangers Actif 108 / 108 40% 2 26.10.2028 -
David Weiss Omonoia Actif 97 / 103 40% 1 21.10.2028 -
Giovanni Leoni Lincoln City Actif 153 / 150 40% 7 18.10.2028 -
Björn Hedlöf Helsingborg Actif 103 / 95 40% 3 16.10.2028 -
Aarón Martín Al-Qadisiyah Actif 124 / 124 40% 4 16.10.2028 -
Tobías Ramírez River Plate Actif 122 / 135 40% 8 15.10.2028 -
Facundo Balatti Penarol Actif 97 / 103 40% 3 11.10.2028 -
Agustín Medina Lanús Actif 111 / 131 40% 9 07.10.2028 -
Chris Rigg West Ham United Actif 143 / 148 40% 1 05.10.2028 -
Matías Magdaleno Estudiantes Actif 101 / 119 40% 3 30.09.2028 -
Muminhon Bahodirxonov Neftchi Actif 88 / 95 40% 1 27.09.2028 -
Tobías Andrada River Plate Actif 116 / 119 40% 2 25.09.2028 -
Fabio Rispoli Como Actif 126 / 126 40% 4 20.09.2028 -
Andrei Racu Kasimpasa Actif 94 / 98 40% 1 20.09.2028 -
Alejandro Almaraz NK Celje Actif 122 / 131 40% 1 19.09.2028 -
Moses Sesay Southampton Actif 120 / 120 40% 1 19.09.2028 -
Rhys Chadwick Blackpool Actif 116 / 114 40% 1 18.09.2028 -
Lautaro Dufur Juventud Actif 91 / 113 40% 4 16.09.2028 -
Germán Barbas Racing Santander Actif 117 / 126 40% 2 12.09.2028 -
Felipe Obradovich Ferro Carril Oeste Actif 108 / 115 40% 2 10.09.2028 -
Sergio Martínez Real Madrid Actif 117 / 133 40% 2 08.09.2028 -
Santiago Espíndola River Plate Actif 115 / 126 40% 2 04.09.2028 -
Christos Mouzakitis Hull City Actif 147 / 147 40% 6 31.08.2028 -
Ezra Mayers West Ham United Actif 135 / 137 40% 2 29.08.2028 -
Ridgeciano Haps Audace Cerignola Rapport prêt 122 / 114 69% 1 28.08.2028 -
Axel Tape Bayer Leverkusen Actif 140 / 141 40% 1 28.08.2028 -
Federico Nardin Willem II Actif 110 / 108 40% 1 24.08.2028 -
Valentín Loza Defensa y Justicia Actif 96 / 118 40% 1 21.08.2028 -
Diego Cheuquepal Racing Actif 107 / 114 40% 1 21.08.2028 -
Diego Vargas Universidad de Concepcion Actif 84 / 92 40% 4 17.08.2028 -
Nicolò Moranduzzo Renate Actif 91 / 103 40% 1 17.08.2028 -
Ernie Weaver Sheffield Wednesday Actif 118 / 124 40% 1 16.08.2028 -
Sascha Britschgi AC Milan Actif 127 / 133 40% 3 15.08.2028 -
Josh Stephenson Brentford Actif 126 / 122 40% 4 11.08.2028 -
Mats Egbring Heerenveen Actif 114 / 115 40% 1 09.08.2028 -
Ludovico Del Sorbo Sorrento Rapport prêt 126 / 127 69% 1 07.08.2028 -
Lamine Bèye Portimonense Actif 120 / 128 40% 2 04.08.2028 -
Veljko Milosavljević Bournemouth Actif 143 / 149 40% 1 04.08.2028 -
Ronan Kpakio AC Milan Actif 122 / 128 40% 3 03.08.2028 -
Nazareno Roselli Defensa y Justicia Actif 122 / 115 40% 1 01.08.2028 -
Andrea Luongo Trento Actif 105 / 107 40% 1 25.07.2028 -
Micah Mbick Derby County Actif 117 / 128 40% 1 25.07.2028 -
Gabe Forsyth Colchester United Actif 107 / 116 40% 1 25.07.2028 -
Seydou Fofana Pacos de Ferreira Actif 102 / 114 40% 3 22.07.2028 -
Adam Boufandar Pro Vercelli Actif 93 / 100 40% 1 22.07.2028 -
Jofre Torrents Ajax Actif 133 / 136 40% 1 22.07.2028 -
Vasilije Novičić IMT Actif 107 / 117 40% 2 19.07.2028 -
Olivier Leroux Mouscron Actif 98 / 114 40% 3 15.07.2028 -
Maxim Radchenko Rostov Actif 87 / 99 40% 1 11.07.2028 -
Ayden Heaven Portsmouth Actif 145 / 154 40% 1 10.06.2028 -
Andrea Cogoni Cosenza Actif 115 / 116 40% 1 08.06.2028 -
Musa Danjuma Umraniyespor Actif 102 / 102 40% 1 06.06.2028 -
Josh Nichols Oldham Athletic Actif 128 / 125 40% 1 06.06.2028 -
Augusto Bando Ascoli Actif 115 / 123 40% 1 05.06.2028 -
Gideon Manaseh Ikorodu City Actif 98 / 98 40% 3 04.06.2028 -
Alessio Insignito Spezia Actif 99 / 112 40% 5 03.06.2028 -
Joel Ezra Enyimba Actif 103 / 107 40% 8 02.06.2028 -
Nicolas Sport Recife Actif 113 / 107 40% 3 31.01.2028 -
Mao Hosoya Santos Actif 134 / 135 67% 1 01.01.2028 -
Bitello Universidad de Chile Actif 135 / 135 68% 1 01.01.2028 -
Victor Hernandez Santa Fe Actif 123 / 133 40% 5 31.12.2027 -
Yury Oyarzo Racing Actif 94 / 105 40% 5 30.12.2027 -
Jon Esenga IF Elfsborg Actif 86 / 93 40% 4 28.12.2027 -
Othniël Raterink Cagliari Actif 122 / 127 40% 3 28.12.2027 -
Jonny Shore New York City Actif 87 / 103 40% 6 27.12.2027 -
Niccolò Fortini Fiorentina Actif 126 / 133 40% 2 26.12.2027 -
Matias Siltanen Malmo FF Actif 136 / 130 40% 7 24.12.2027 -
Colin Guske Orlando City Actif 97 / 103 40% 2 24.12.2027 -
Olivier Mambwa Young Boys Actif 111 / 115 40% 1 22.12.2027 -
Frederik Damkjer Viborg Actif 96 / 99 40% 1 21.12.2027 -
Oscar Steinke Brånby Hammarby Actif 108 / 117 40% 7 15.12.2027 -
Pedro Vian Seewald Dolomiti Bellunesi Actif 94 / 108 40% 1 13.12.2027 -
Matvey Bardachev Zenit Actif 103 / 106 40% 3 12.12.2027 -
Tobiáš Pališčák Zlin Actif 90 / 105 40% 1 12.12.2027 -
Jorthy Mokio ADO Den Haag Actif 133 / 139 40% 1 07.12.2027 -
Amine Boukamir Charleroi Actif 102 / 107 40% 1 01.12.2027 -
Gonçalo Oliveira Benfica Actif 117 / 123 40% 1 26.11.2027 -
Agustín Obregón River Plate Actif 106 / 119 40% 1 24.11.2027 -
Ignacio Fernández Boston River Actif 95 / 105 40% 2 20.11.2027 -
Tobias Moi Lillestrom Actif 112 / 118 40% 3 18.11.2027 -
Juan Manuel Villalba Tigre Actif 119 / 130 40% 3 14.11.2027 -
Adrian Skogmar Malmo FF Actif 116 / 121 40% 4 13.11.2027 -
Nicolás Blanco San Lorenzo Actif 109 / 99 40% 1 24.10.2027 -
Fodé Sylla Sion Actif 117 / 122 40% 2 18.10.2027 -
Ángel Aguayo Sol de America Actif 88 / 105 40% 1 18.10.2027 -
Hugo Rojas Instituto Actif 94 / 110 40% 2 17.10.2027 -
Yiandro Raap Ilves Actif 92 / 99 40% 1 17.10.2027 -
Paulo Cardoso Sporting CP Actif 96 / 101 40% 1 07.06.2027 -
Marcel Ruiz Crystal Palace Actif 140 / 141 68% 1 01.06.2027 Approuver
Zack Nelson Ternana Actif 99 / 99 40% 1 28.12.2026 -
Monty Batlhabane Polokwane City Actif 80 / 107 40% 1 28.12.2026 -
Mathys Tel Tottenham Actif 135 / 144 40% 1 17.12.2026 -
Tudor Mendel-Idowu Gubbio Actif 84 / 95 40% 1 16.12.2026 -
Artem Slesar Zorya Actif 105 / 114 40% 2 02.12.2026 -
Romelle Donovan Brentford Actif 111 / 131 40% 1 02.12.2026 -
Kirill Glebov CSKA Moscow Actif 124 / 130 40% 1 02.12.2026 -
Martin Gjorgievski Zbrojovka Brno Actif 99 / 111 40% 1 24.11.2026 -